sensor_id;sensor_type;location;lat;lon;timestamp;P1;durP1;ratioP1;P2;durP2;ratioP2
75716;SDS011;64333;50.138;14.332;2023-02-12T00:02:17;18.08;;;8.95;;
75716;SDS011;64333;50.138;14.332;2023-02-12T00:04:43;18.27;;;8.07;;
75716;SDS011;64333;50.138;14.332;2023-02-12T00:07:08;15.90;;;8.05;;
75716;SDS011;64333;50.138;14.332;2023-02-12T00:09:35;16.02;;;8.75;;
75716;SDS011;64333;50.138;14.332;2023-02-12T00:12:01;17.08;;;8.48;;
75716;SDS011;64333;50.138;14.332;2023-02-12T00:14:26;16.42;;;8.25;;
75716;SDS011;64333;50.138;14.332;2023-02-12T00:16:51;15.07;;;8.15;;
75716;SDS011;64333;50.138;14.332;2023-02-12T00:19:17;14.73;;;7.57;;
75716;SDS011;64333;50.138;14.332;2023-02-12T00:21:42;12.48;;;7.75;;
75716;SDS011;64333;50.138;14.332;2023-02-12T00:24:08;15.57;;;7.68;;
75716;SDS011;64333;50.138;14.332;2023-02-12T00:26:34;15.55;;;8.25;;
75716;SDS011;64333;50.138;14.332;2023-02-12T00:29:00;14.80;;;8.20;;
75716;SDS011;64333;50.138;14.332;2023-02-12T00:31:26;16.42;;;8.02;;
75716;SDS011;64333;50.138;14.332;2023-02-12T00:33:53;13.98;;;7.63;;
75716;SDS011;64333;50.138;14.332;2023-02-12T00:36:21;13.40;;;7.35;;
75716;SDS011;64333;50.138;14.332;2023-02-12T00:38:53;15.63;;;7.03;;
75716;SDS011;64333;50.138;14.332;2023-02-12T00:43:46;13.27;;;6.38;;
75716;SDS011;64333;50.138;14.332;2023-02-12T00:46:12;14.90;;;8.32;;
75716;SDS011;64333;50.138;14.332;2023-02-12T00:48:38;15.00;;;7.72;;
75716;SDS011;64333;50.138;14.332;2023-02-12T00:51:04;14.32;;;7.93;;
75716;SDS011;64333;50.138;14.332;2023-02-12T00:53:30;13.85;;;7.25;;
75716;SDS011;64333;50.138;14.332;2023-02-12T00:55:56;12.55;;;7.18;;
75716;SDS011;64333;50.138;14.332;2023-02-12T00:58:22;12.05;;;6.15;;
75716;SDS011;64333;50.138;14.332;2023-02-12T01:00:47;12.82;;;7.63;;
75716;SDS011;64333;50.138;14.332;2023-02-12T01:03:13;12.82;;;6.05;;
75716;SDS011;64333;50.138;14.332;2023-02-12T01:05:39;10.18;;;6.80;;
75716;SDS011;64333;50.138;14.332;2023-02-12T01:08:05;13.20;;;6.75;;
75716;SDS011;64333;50.138;14.332;2023-02-12T01:10:31;11.55;;;7.18;;
75716;SDS011;64333;50.138;14.332;2023-02-12T01:12:56;11.68;;;7.55;;
75716;SDS011;64333;50.138;14.332;2023-02-12T01:15:22;15.27;;;8.13;;
75716;SDS011;64333;50.138;14.332;2023-02-12T01:17:50;9.88;;;6.20;;
75716;SDS011;64333;50.138;14.332;2023-02-12T01:20:17;9.60;;;6.18;;
75716;SDS011;64333;50.138;14.332;2023-02-12T01:22:43;9.70;;;6.40;;
75716;SDS011;64333;50.138;14.332;2023-02-12T01:25:09;12.93;;;6.68;;
75716;SDS011;64333;50.138;14.332;2023-02-12T01:27:35;11.23;;;6.97;;
75716;SDS011;64333;50.138;14.332;2023-02-12T01:30:01;13.00;;;7.78;;
75716;SDS011;64333;50.138;14.332;2023-02-12T01:32:26;12.85;;;6.85;;
75716;SDS011;64333;50.138;14.332;2023-02-12T01:34:52;11.90;;;6.13;;
75716;SDS011;64333;50.138;14.332;2023-02-12T01:37:17;11.40;;;6.65;;
75716;SDS011;64333;50.138;14.332;2023-02-12T01:39:43;11.30;;;6.43;;
75716;SDS011;64333;50.138;14.332;2023-02-12T01:42:09;11.75;;;5.95;;
75716;SDS011;64333;50.138;14.332;2023-02-12T01:44:38;11.10;;;5.63;;
75716;SDS011;64333;50.138;14.332;2023-02-12T01:47:15;10.82;;;5.57;;
75716;SDS011;64333;50.138;14.332;2023-02-12T01:49:42;11.07;;;5.72;;
75716;SDS011;64333;50.138;14.332;2023-02-12T01:52:19;9.60;;;5.30;;
75716;SDS011;64333;50.138;14.332;2023-02-12T01:54:50;10.55;;;5.55;;
75716;SDS011;64333;50.138;14.332;2023-02-12T01:57:17;9.32;;;5.72;;
75716;SDS011;64333;50.138;14.332;2023-02-12T01:59:44;7.65;;;4.70;;
75716;SDS011;64333;50.138;14.332;2023-02-12T02:02:14;10.73;;;5.35;;
75716;SDS011;64333;50.138;14.332;2023-02-12T02:04:45;10.43;;;5.05;;
75716;SDS011;64333;50.138;14.332;2023-02-12T02:07:14;9.05;;;4.88;;
75716;SDS011;64333;50.138;14.332;2023-02-12T02:09:40;9.85;;;5.32;;
75716;SDS011;64333;50.138;14.332;2023-02-12T02:12:05;7.97;;;4.57;;
75716;SDS011;64333;50.138;14.332;2023-02-12T02:14:51;8.88;;;5.18;;
75716;SDS011;64333;50.138;14.332;2023-02-12T02:25:37;10.20;;;5.50;;
75716;SDS011;64333;50.138;14.332;2023-02-12T02:33:49;7.07;;;3.55;;
75716;SDS011;64333;50.138;14.332;2023-02-12T02:36:28;7.70;;;3.95;;
75716;SDS011;64333;50.138;14.332;2023-02-12T02:39:02;8.32;;;4.00;;
75716;SDS011;64333;50.138;14.332;2023-02-12T02:41:47;8.43;;;4.00;;
75716;SDS011;64333;50.138;14.332;2023-02-12T02:44:21;8.00;;;4.10;;
75716;SDS011;64333;50.138;14.332;2023-02-12T02:46:52;7.45;;;3.95;;
75716;SDS011;64333;50.138;14.332;2023-02-12T02:49:22;6.20;;;3.80;;
75716;SDS011;64333;50.138;14.332;2023-02-12T02:51:55;6.68;;;3.50;;
75716;SDS011;64333;50.138;14.332;2023-02-12T02:54:35;6.85;;;3.90;;
75716;SDS011;64333;50.138;14.332;2023-02-12T02:57:07;7.38;;;3.83;;
75716;SDS011;64333;50.138;14.332;2023-02-12T02:59:48;7.50;;;3.97;;
75716;SDS011;64333;50.138;14.332;2023-02-12T03:02:20;6.57;;;4.03;;
75716;SDS011;64333;50.138;14.332;2023-02-12T03:04:53;7.30;;;4.05;;
75716;SDS011;64333;50.138;14.332;2023-02-12T03:09:56;6.68;;;4.13;;
75716;SDS011;64333;50.138;14.332;2023-02-12T03:12:35;8.68;;;4.20;;
75716;SDS011;64333;50.138;14.332;2023-02-12T03:15:10;7.75;;;4.50;;
75716;SDS011;64333;50.138;14.332;2023-02-12T03:17:43;7.10;;;4.30;;
75716;SDS011;64333;50.138;14.332;2023-02-12T03:20:18;8.43;;;4.80;;
75716;SDS011;64333;50.138;14.332;2023-02-12T03:22:53;7.53;;;4.47;;
75716;SDS011;64333;50.138;14.332;2023-02-12T03:25:44;8.68;;;4.57;;
75716;SDS011;64333;50.138;14.332;2023-02-12T03:28:08;7.63;;;4.90;;
75716;SDS011;64333;50.138;14.332;2023-02-12T03:31:02;9.40;;;4.70;;
75716;SDS011;64333;50.138;14.332;2023-02-12T03:33:43;8.80;;;4.35;;
75716;SDS011;64333;50.138;14.332;2023-02-12T03:39:34;8.10;;;3.97;;
75716;SDS011;64333;50.138;14.332;2023-02-12T03:44:53;9.07;;;4.43;;
75716;SDS011;64333;50.138;14.332;2023-02-12T03:47:30;10.98;;;4.80;;
75716;SDS011;64333;50.138;14.332;2023-02-12T03:50:00;9.18;;;4.85;;
75716;SDS011;64333;50.138;14.332;2023-02-12T03:52:31;9.18;;;4.70;;
75716;SDS011;64333;50.138;14.332;2023-02-12T03:54:57;9.90;;;4.40;;
75716;SDS011;64333;50.138;14.332;2023-02-12T03:57:24;9.48;;;5.28;;
75716;SDS011;64333;50.138;14.332;2023-02-12T03:59:56;9.27;;;4.97;;
75716;SDS011;64333;50.138;14.332;2023-02-12T04:02:23;11.40;;;5.55;;
75716;SDS011;64333;50.138;14.332;2023-02-12T04:04:49;9.73;;;5.22;;
75716;SDS011;64333;50.138;14.332;2023-02-12T04:07:15;10.82;;;5.60;;
75716;SDS011;64333;50.138;14.332;2023-02-12T04:09:41;13.68;;;5.97;;
75716;SDS011;64333;50.138;14.332;2023-02-12T04:18:03;10.23;;;5.40;;
75716;SDS011;64333;50.138;14.332;2023-02-12T04:20:45;9.52;;;5.07;;
75716;SDS011;64333;50.138;14.332;2023-02-12T04:28:50;11.88;;;5.50;;
75716;SDS011;64333;50.138;14.332;2023-02-12T04:31:22;11.30;;;6.30;;
75716;SDS011;64333;50.138;14.332;2023-02-12T04:34:11;13.35;;;5.97;;
75716;SDS011;64333;50.138;14.332;2023-02-12T04:36:44;8.90;;;5.85;;
75716;SDS011;64333;50.138;14.332;2023-02-12T04:39:30;12.73;;;5.65;;
75716;SDS011;64333;50.138;14.332;2023-02-12T04:41:59;10.63;;;5.63;;
75716;SDS011;64333;50.138;14.332;2023-02-12T04:44:27;13.80;;;5.47;;
75716;SDS011;64333;50.138;14.332;2023-02-12T04:46:55;12.30;;;5.50;;
75716;SDS011;64333;50.138;14.332;2023-02-12T04:49:21;11.57;;;5.80;;
75716;SDS011;64333;50.138;14.332;2023-02-12T04:51:47;11.95;;;5.80;;
75716;SDS011;64333;50.138;14.332;2023-02-12T04:54:14;9.70;;;5.10;;
75716;SDS011;64333;50.138;14.332;2023-02-12T04:56:40;10.95;;;5.32;;
75716;SDS011;64333;50.138;14.332;2023-02-12T04:59:05;13.50;;;6.15;;
75716;SDS011;64333;50.138;14.332;2023-02-12T05:01:34;12.57;;;6.28;;
75716;SDS011;64333;50.138;14.332;2023-02-12T05:04:01;11.90;;;5.18;;
75716;SDS011;64333;50.138;14.332;2023-02-12T05:06:27;11.20;;;5.68;;
75716;SDS011;64333;50.138;14.332;2023-02-12T05:08:54;9.27;;;5.32;;
75716;SDS011;64333;50.138;14.332;2023-02-12T05:11:20;11.50;;;5.72;;
75716;SDS011;64333;50.138;14.332;2023-02-12T05:13:49;10.85;;;5.65;;
75716;SDS011;64333;50.138;14.332;2023-02-12T05:16:15;10.60;;;5.78;;
75716;SDS011;64333;50.138;14.332;2023-02-12T05:18:41;11.98;;;5.78;;
75716;SDS011;64333;50.138;14.332;2023-02-12T05:21:06;10.93;;;6.13;;
75716;SDS011;64333;50.138;14.332;2023-02-12T05:23:33;14.05;;;6.85;;
75716;SDS011;64333;50.138;14.332;2023-02-12T05:26:01;12.85;;;6.07;;
75716;SDS011;64333;50.138;14.332;2023-02-12T05:28:29;14.18;;;6.65;;
75716;SDS011;64333;50.138;14.332;2023-02-12T05:30:58;12.05;;;5.50;;
75716;SDS011;64333;50.138;14.332;2023-02-12T05:33:24;12.25;;;5.47;;
75716;SDS011;64333;50.138;14.332;2023-02-12T05:35:50;13.90;;;5.57;;
75716;SDS011;64333;50.138;14.332;2023-02-12T05:38:15;12.43;;;6.25;;
75716;SDS011;64333;50.138;14.332;2023-02-12T05:40:40;13.75;;;6.78;;
75716;SDS011;64333;50.138;14.332;2023-02-12T05:43:07;14.00;;;6.50;;
75716;SDS011;64333;50.138;14.332;2023-02-12T05:45:32;13.80;;;6.88;;
75716;SDS011;64333;50.138;14.332;2023-02-12T05:47:57;13.27;;;6.55;;
75716;SDS011;64333;50.138;14.332;2023-02-12T05:50:23;14.23;;;7.28;;
75716;SDS011;64333;50.138;14.332;2023-02-12T05:52:48;14.43;;;6.88;;
75716;SDS011;64333;50.138;14.332;2023-02-12T05:55:13;15.38;;;7.38;;
75716;SDS011;64333;50.138;14.332;2023-02-12T05:57:39;14.15;;;6.93;;
75716;SDS011;64333;50.138;14.332;2023-02-12T06:00:05;11.73;;;5.97;;
75716;SDS011;64333;50.138;14.332;2023-02-12T06:02:34;16.67;;;6.80;;
75716;SDS011;64333;50.138;14.332;2023-02-12T06:05:00;12.32;;;6.43;;
75716;SDS011;64333;50.138;14.332;2023-02-12T06:07:25;12.50;;;6.85;;
75716;SDS011;64333;50.138;14.332;2023-02-12T06:09:51;13.80;;;7.13;;
75716;SDS011;64333;50.138;14.332;2023-02-12T06:12:16;13.80;;;6.75;;
75716;SDS011;64333;50.138;14.332;2023-02-12T06:14:42;13.32;;;6.88;;
75716;SDS011;64333;50.138;14.332;2023-02-12T06:17:07;13.45;;;6.53;;
75716;SDS011;64333;50.138;14.332;2023-02-12T06:19:32;12.98;;;6.93;;
75716;SDS011;64333;50.138;14.332;2023-02-12T06:21:58;17.85;;;6.55;;
75716;SDS011;64333;50.138;14.332;2023-02-12T06:24:23;14.50;;;6.88;;
75716;SDS011;64333;50.138;14.332;2023-02-12T06:26:49;16.92;;;7.05;;
75716;SDS011;64333;50.138;14.332;2023-02-12T06:29:16;14.00;;;6.45;;
75716;SDS011;64333;50.138;14.332;2023-02-12T06:31:44;14.02;;;6.72;;
75716;SDS011;64333;50.138;14.332;2023-02-12T06:34:10;12.63;;;6.80;;
75716;SDS011;64333;50.138;14.332;2023-02-12T06:36:38;15.00;;;6.75;;
75716;SDS011;64333;50.138;14.332;2023-02-12T06:39:05;15.63;;;7.65;;
75716;SDS011;64333;50.138;14.332;2023-02-12T06:41:31;14.05;;;7.38;;
75716;SDS011;64333;50.138;14.332;2023-02-12T06:43:56;15.50;;;7.47;;
75716;SDS011;64333;50.138;14.332;2023-02-12T06:46:22;16.25;;;7.30;;
75716;SDS011;64333;50.138;14.332;2023-02-12T06:48:51;16.65;;;6.95;;
75716;SDS011;64333;50.138;14.332;2023-02-12T06:51:17;12.35;;;6.60;;
75716;SDS011;64333;50.138;14.332;2023-02-12T06:53:45;14.93;;;7.15;;
75716;SDS011;64333;50.138;14.332;2023-02-12T06:56:12;11.90;;;6.03;;
75716;SDS011;64333;50.138;14.332;2023-02-12T06:58:38;11.82;;;6.30;;
75716;SDS011;64333;50.138;14.332;2023-02-12T07:03:48;11.63;;;6.03;;
75716;SDS011;64333;50.138;14.332;2023-02-12T07:06:19;9.35;;;5.22;;
75716;SDS011;64333;50.138;14.332;2023-02-12T07:08:45;7.82;;;5.25;;
75716;SDS011;64333;50.138;14.332;2023-02-12T07:11:11;10.02;;;5.57;;
75716;SDS011;64333;50.138;14.332;2023-02-12T07:13:38;9.23;;;4.95;;
75716;SDS011;64333;50.138;14.332;2023-02-12T07:16:05;10.27;;;5.68;;
75716;SDS011;64333;50.138;14.332;2023-02-12T07:18:32;10.40;;;5.13;;
75716;SDS011;64333;50.138;14.332;2023-02-12T07:20:58;8.57;;;5.15;;
75716;SDS011;64333;50.138;14.332;2023-02-12T07:23:24;9.73;;;5.13;;
75716;SDS011;64333;50.138;14.332;2023-02-12T07:25:55;11.10;;;5.53;;
75716;SDS011;64333;50.138;14.332;2023-02-12T07:28:21;8.75;;;5.00;;
75716;SDS011;64333;50.138;14.332;2023-02-12T07:30:47;9.93;;;5.70;;
75716;SDS011;64333;50.138;14.332;2023-02-12T07:33:12;11.85;;;6.88;;
75716;SDS011;64333;50.138;14.332;2023-02-12T07:35:38;10.80;;;5.85;;
75716;SDS011;64333;50.138;14.332;2023-02-12T07:38:03;14.38;;;5.93;;
75716;SDS011;64333;50.138;14.332;2023-02-12T07:40:28;12.60;;;7.05;;
75716;SDS011;64333;50.138;14.332;2023-02-12T07:42:54;10.70;;;6.20;;
75716;SDS011;64333;50.138;14.332;2023-02-12T07:45:20;13.90;;;6.05;;
75716;SDS011;64333;50.138;14.332;2023-02-12T07:47:46;11.85;;;5.68;;
75716;SDS011;64333;50.138;14.332;2023-02-12T07:50:11;11.07;;;6.18;;
75716;SDS011;64333;50.138;14.332;2023-02-12T07:52:36;13.82;;;6.63;;
75716;SDS011;64333;50.138;14.332;2023-02-12T07:55:02;12.88;;;6.25;;
75716;SDS011;64333;50.138;14.332;2023-02-12T07:57:27;12.68;;;5.88;;
75716;SDS011;64333;50.138;14.332;2023-02-12T07:59:53;13.30;;;6.60;;
75716;SDS011;64333;50.138;14.332;2023-02-12T08:02:18;12.45;;;6.93;;
75716;SDS011;64333;50.138;14.332;2023-02-12T08:04:43;12.95;;;6.40;;
75716;SDS011;64333;50.138;14.332;2023-02-12T08:07:09;11.68;;;6.45;;
75716;SDS011;64333;50.138;14.332;2023-02-12T08:09:34;13.20;;;6.45;;
75716;SDS011;64333;50.138;14.332;2023-02-12T08:12:00;14.10;;;6.25;;
75716;SDS011;64333;50.138;14.332;2023-02-12T08:14:25;14.77;;;7.22;;
75716;SDS011;64333;50.138;14.332;2023-02-12T08:16:51;13.05;;;6.75;;
75716;SDS011;64333;50.138;14.332;2023-02-12T08:19:17;13.18;;;6.05;;
75716;SDS011;64333;50.138;14.332;2023-02-12T08:21:43;16.20;;;7.88;;
75716;SDS011;64333;50.138;14.332;2023-02-12T08:24:09;15.23;;;6.78;;
75716;SDS011;64333;50.138;14.332;2023-02-12T08:26:36;12.48;;;6.03;;
75716;SDS011;64333;50.138;14.332;2023-02-12T08:29:04;15.95;;;7.22;;
75716;SDS011;64333;50.138;14.332;2023-02-12T08:31:32;13.25;;;5.47;;
75716;SDS011;64333;50.138;14.332;2023-02-12T08:33:59;11.25;;;6.22;;
75716;SDS011;64333;50.138;14.332;2023-02-12T08:36:29;14.20;;;6.88;;
75716;SDS011;64333;50.138;14.332;2023-02-12T08:39:00;13.50;;;5.55;;
75716;SDS011;64333;50.138;14.332;2023-02-12T08:41:26;11.82;;;6.00;;
75716;SDS011;64333;50.138;14.332;2023-02-12T08:43:54;12.82;;;5.97;;
75716;SDS011;64333;50.138;14.332;2023-02-12T08:46:22;16.70;;;8.52;;
75716;SDS011;64333;50.138;14.332;2023-02-12T08:48:52;13.95;;;7.65;;
75716;SDS011;64333;50.138;14.332;2023-02-12T08:51:21;14.60;;;7.00;;
75716;SDS011;64333;50.138;14.332;2023-02-12T08:53:50;12.05;;;6.15;;
75716;SDS011;64333;50.138;14.332;2023-02-12T08:56:17;11.40;;;6.30;;
75716;SDS011;64333;50.138;14.332;2023-02-12T08:58:42;13.02;;;6.38;;
75716;SDS011;64333;50.138;14.332;2023-02-12T09:01:09;10.60;;;6.03;;
75716;SDS011;64333;50.138;14.332;2023-02-12T09:03:40;12.38;;;6.13;;
75716;SDS011;64333;50.138;14.332;2023-02-12T09:06:07;11.38;;;5.75;;
75716;SDS011;64333;50.138;14.332;2023-02-12T09:08:33;14.07;;;6.95;;
75716;SDS011;64333;50.138;14.332;2023-02-12T09:10:59;11.00;;;6.78;;
75716;SDS011;64333;50.138;14.332;2023-02-12T09:13:28;13.93;;;7.68;;
75716;SDS011;64333;50.138;14.332;2023-02-12T09:15:53;14.30;;;6.72;;
75716;SDS011;64333;50.138;14.332;2023-02-12T09:18:18;15.25;;;6.82;;
75716;SDS011;64333;50.138;14.332;2023-02-12T09:20:44;10.18;;;6.32;;
75716;SDS011;64333;50.138;14.332;2023-02-12T09:23:10;13.38;;;7.65;;
75716;SDS011;64333;50.138;14.332;2023-02-12T09:25:40;15.48;;;8.00;;
75716;SDS011;64333;50.138;14.332;2023-02-12T09:28:07;14.45;;;7.32;;
75716;SDS011;64333;50.138;14.332;2023-02-12T09:30:33;14.15;;;7.13;;
75716;SDS011;64333;50.138;14.332;2023-02-12T09:32:58;14.75;;;7.05;;
75716;SDS011;64333;50.138;14.332;2023-02-12T09:35:24;14.27;;;6.70;;
75716;SDS011;64333;50.138;14.332;2023-02-12T09:37:50;14.10;;;7.75;;
75716;SDS011;64333;50.138;14.332;2023-02-12T09:40:21;14.32;;;7.50;;
75716;SDS011;64333;50.138;14.332;2023-02-12T09:45:41;12.30;;;7.18;;
75716;SDS011;64333;50.138;14.332;2023-02-12T09:51:11;14.63;;;7.20;;
75716;SDS011;64333;50.138;14.332;2023-02-12T09:53:42;16.10;;;7.78;;
75716;SDS011;64333;50.138;14.332;2023-02-12T09:56:14;14.35;;;6.72;;
75716;SDS011;64333;50.138;14.332;2023-02-12T10:01:16;12.90;;;6.85;;
75716;SDS011;64333;50.138;14.332;2023-02-12T10:03:43;15.15;;;7.68;;
75716;SDS011;64333;50.138;14.332;2023-02-12T10:06:13;12.60;;;6.90;;
75716;SDS011;64333;50.138;14.332;2023-02-12T10:11:24;14.07;;;7.55;;
75716;SDS011;64333;50.138;14.332;2023-02-12T10:27:56;15.70;;;7.32;;
75716;SDS011;64333;50.138;14.332;2023-02-12T10:30:33;16.77;;;8.02;;
75716;SDS011;64333;50.138;14.332;2023-02-12T10:33:10;14.75;;;7.57;;
75716;SDS011;64333;50.138;14.332;2023-02-12T10:35:42;14.30;;;7.35;;
75716;SDS011;64333;50.138;14.332;2023-02-12T10:38:19;12.50;;;7.38;;
75716;SDS011;64333;50.138;14.332;2023-02-12T10:40:47;13.55;;;7.00;;
75716;SDS011;64333;50.138;14.332;2023-02-12T10:43:14;11.63;;;6.88;;
75716;SDS011;64333;50.138;14.332;2023-02-12T10:45:41;10.10;;;5.93;;
75716;SDS011;64333;50.138;14.332;2023-02-12T10:48:09;11.98;;;6.35;;
75716;SDS011;64333;50.138;14.332;2023-02-12T10:53:23;11.93;;;5.78;;
75716;SDS011;64333;50.138;14.332;2023-02-12T10:58:52;10.05;;;5.22;;
75716;SDS011;64333;50.138;14.332;2023-02-12T11:01:21;10.88;;;6.18;;
75716;SDS011;64333;50.138;14.332;2023-02-12T11:03:50;13.13;;;6.32;;
75716;SDS011;64333;50.138;14.332;2023-02-12T11:06:20;9.02;;;5.35;;
75716;SDS011;64333;50.138;14.332;2023-02-12T11:08:47;10.43;;;5.80;;
75716;SDS011;64333;50.138;14.332;2023-02-12T11:11:18;11.02;;;4.97;;
75716;SDS011;64333;50.138;14.332;2023-02-12T11:16:45;10.23;;;5.18;;
75716;SDS011;64333;50.138;14.332;2023-02-12T11:19:29;9.35;;;4.65;;
75716;SDS011;64333;50.138;14.332;2023-02-12T11:22:06;9.57;;;5.35;;
75716;SDS011;64333;50.138;14.332;2023-02-12T11:24:35;8.70;;;4.53;;
75716;SDS011;64333;50.138;14.332;2023-02-12T11:29:39;9.65;;;4.53;;
75716;SDS011;64333;50.138;14.332;2023-02-12T11:32:06;10.55;;;5.32;;
75716;SDS011;64333;50.138;14.332;2023-02-12T11:34:33;11.38;;;5.15;;
75716;SDS011;64333;50.138;14.332;2023-02-12T11:36:59;9.65;;;4.93;;
75716;SDS011;64333;50.138;14.332;2023-02-12T11:39:32;9.65;;;4.32;;
75716;SDS011;64333;50.138;14.332;2023-02-12T11:42:19;9.90;;;4.53;;
75716;SDS011;64333;50.138;14.332;2023-02-12T11:44:52;9.00;;;4.80;;
75716;SDS011;64333;50.138;14.332;2023-02-12T11:47:23;9.23;;;4.55;;
75716;SDS011;64333;50.138;14.332;2023-02-12T11:50:36;8.88;;;4.93;;
75716;SDS011;64333;50.138;14.332;2023-02-12T11:52:46;10.38;;;5.03;;
75716;SDS011;64333;50.138;14.332;2023-02-12T11:55:17;11.57;;;5.65;;
75716;SDS011;64333;50.138;14.332;2023-02-12T11:57:48;10.85;;;6.10;;
75716;SDS011;64333;50.138;14.332;2023-02-12T12:00:29;11.45;;;6.00;;
75716;SDS011;64333;50.138;14.332;2023-02-12T12:05:44;10.15;;;5.53;;
75716;SDS011;64333;50.138;14.332;2023-02-12T12:08:14;14.02;;;5.95;;
75716;SDS011;64333;50.138;14.332;2023-02-12T12:11:10;10.40;;;4.85;;
75716;SDS011;64333;50.138;14.332;2023-02-12T12:13:47;9.18;;;4.18;;
75716;SDS011;64333;50.138;14.332;2023-02-12T12:16:26;9.13;;;4.70;;
75716;SDS011;64333;50.138;14.332;2023-02-12T12:19:25;12.48;;;4.85;;
75716;SDS011;64333;50.138;14.332;2023-02-12T12:25:24;9.85;;;3.83;;
75716;SDS011;64333;50.138;14.332;2023-02-12T12:30:57;9.90;;;4.50;;
75716;SDS011;64333;50.138;14.332;2023-02-12T12:38:43;10.73;;;4.90;;
75716;SDS011;64333;50.138;14.332;2023-02-12T12:58:21;10.75;;;3.55;;
75716;SDS011;64333;50.138;14.332;2023-02-12T13:01:00;6.57;;;2.72;;
75716;SDS011;64333;50.138;14.332;2023-02-12T13:03:55;7.72;;;2.88;;
75716;SDS011;64333;50.138;14.332;2023-02-12T13:09:47;7.40;;;2.20;;
75716;SDS011;64333;50.138;14.332;2023-02-12T13:12:35;6.32;;;2.70;;
75716;SDS011;64333;50.138;14.332;2023-02-12T13:18:16;9.50;;;3.53;;
75716;SDS011;64333;50.138;14.332;2023-02-12T13:21:02;7.53;;;3.72;;
75716;SDS011;64333;50.138;14.332;2023-02-12T13:26:25;6.32;;;3.60;;
75716;SDS011;64333;50.138;14.332;2023-02-12T13:29:00;9.15;;;3.58;;
75716;SDS011;64333;50.138;14.332;2023-02-12T13:31:32;8.75;;;3.38;;
75716;SDS011;64333;50.138;14.332;2023-02-12T13:34:13;8.48;;;3.75;;
75716;SDS011;64333;50.138;14.332;2023-02-12T13:36:41;9.98;;;3.03;;
75716;SDS011;64333;50.138;14.332;2023-02-12T13:39:27;8.10;;;3.03;;
75716;SDS011;64333;50.138;14.332;2023-02-12T13:42:39;9.02;;;3.47;;
75716;SDS011;64333;50.138;14.332;2023-02-12T13:47:44;9.93;;;2.90;;
75716;SDS011;64333;50.138;14.332;2023-02-12T13:58:47;8.23;;;2.97;;
75716;SDS011;64333;50.138;14.332;2023-02-12T14:04:39;6.80;;;2.40;;
75716;SDS011;64333;50.138;14.332;2023-02-12T14:07:00;6.50;;;2.17;;
75716;SDS011;64333;50.138;14.332;2023-02-12T14:09:38;6.50;;;2.50;;
75716;SDS011;64333;50.138;14.332;2023-02-12T14:12:49;7.45;;;2.33;;
75716;SDS011;64333;50.138;14.332;2023-02-12T14:15:17;7.93;;;2.58;;
75716;SDS011;64333;50.138;14.332;2023-02-12T14:20:27;8.63;;;3.80;;
75716;SDS011;64333;50.138;14.332;2023-02-12T14:22:56;5.30;;;2.90;;
75716;SDS011;64333;50.138;14.332;2023-02-12T14:28:12;9.32;;;4.07;;
75716;SDS011;64333;50.138;14.332;2023-02-12T14:30:45;7.63;;;3.05;;
75716;SDS011;64333;50.138;14.332;2023-02-12T14:33:19;8.15;;;3.00;;
75716;SDS011;64333;50.138;14.332;2023-02-12T14:35:47;9.35;;;3.03;;
75716;SDS011;64333;50.138;14.332;2023-02-12T14:40:40;13.48;;;3.83;;
75716;SDS011;64333;50.138;14.332;2023-02-12T14:43:49;6.40;;;2.80;;
75716;SDS011;64333;50.138;14.332;2023-02-12T14:48:55;10.02;;;4.07;;
75716;SDS011;64333;50.138;14.332;2023-02-12T14:54:40;10.75;;;4.50;;
75716;SDS011;64333;50.138;14.332;2023-02-12T14:57:26;8.85;;;4.28;;
75716;SDS011;64333;50.138;14.332;2023-02-12T15:00:06;14.65;;;5.43;;
75716;SDS011;64333;50.138;14.332;2023-02-12T15:03:00;8.35;;;4.78;;
75716;SDS011;64333;50.138;14.332;2023-02-12T15:08:23;11.73;;;4.72;;
75716;SDS011;64333;50.138;14.332;2023-02-12T15:11:32;10.63;;;4.93;;
75716;SDS011;64333;50.138;14.332;2023-02-12T15:14:06;10.55;;;4.88;;
75716;SDS011;64333;50.138;14.332;2023-02-12T15:16:56;8.57;;;4.53;;
75716;SDS011;64333;50.138;14.332;2023-02-12T15:21:58;10.30;;;4.95;;
75716;SDS011;64333;50.138;14.332;2023-02-12T15:24:24;10.90;;;5.18;;
75716;SDS011;64333;50.138;14.332;2023-02-12T15:26:54;10.23;;;4.88;;
75716;SDS011;64333;50.138;14.332;2023-02-12T15:31:56;10.98;;;5.45;;
75716;SDS011;64333;50.138;14.332;2023-02-12T15:34:24;12.82;;;5.90;;
75716;SDS011;64333;50.138;14.332;2023-02-12T15:36:54;12.85;;;5.40;;
75716;SDS011;64333;50.138;14.332;2023-02-12T15:39:22;13.82;;;5.57;;
75716;SDS011;64333;50.138;14.332;2023-02-12T15:41:50;13.93;;;5.65;;
75716;SDS011;64333;50.138;14.332;2023-02-12T15:47:11;9.27;;;5.40;;
75716;SDS011;64333;50.138;14.332;2023-02-12T15:49:39;9.43;;;5.40;;
75716;SDS011;64333;50.138;14.332;2023-02-12T15:52:24;12.43;;;5.93;;
75716;SDS011;64333;50.138;14.332;2023-02-12T15:54:58;10.55;;;5.00;;
75716;SDS011;64333;50.138;14.332;2023-02-12T15:57:25;10.38;;;5.38;;
75716;SDS011;64333;50.138;14.332;2023-02-12T15:59:51;10.73;;;6.05;;
75716;SDS011;64333;50.138;14.332;2023-02-12T16:02:26;10.55;;;5.10;;
75716;SDS011;64333;50.138;14.332;2023-02-12T16:04:53;10.90;;;5.70;;
75716;SDS011;64333;50.138;14.332;2023-02-12T16:07:20;10.88;;;6.55;;
75716;SDS011;64333;50.138;14.332;2023-02-12T16:09:47;12.25;;;6.38;;
75716;SDS011;64333;50.138;14.332;2023-02-12T16:12:14;11.95;;;6.53;;
75716;SDS011;64333;50.138;14.332;2023-02-12T16:14:47;15.45;;;7.13;;
75716;SDS011;64333;50.138;14.332;2023-02-12T16:17:33;14.27;;;8.13;;
75716;SDS011;64333;50.138;14.332;2023-02-12T16:20:02;14.77;;;7.45;;
75716;SDS011;64333;50.138;14.332;2023-02-12T16:22:40;14.77;;;7.45;;
75716;SDS011;64333;50.138;14.332;2023-02-12T16:25:13;14.10;;;7.88;;
75716;SDS011;64333;50.138;14.332;2023-02-12T16:27:42;17.48;;;8.75;;
75716;SDS011;64333;50.138;14.332;2023-02-12T16:32:51;14.32;;;7.20;;
75716;SDS011;64333;50.138;14.332;2023-02-12T16:37:43;13.48;;;8.18;;
75716;SDS011;64333;50.138;14.332;2023-02-12T16:50:47;14.10;;;8.48;;
75716;SDS011;64333;50.138;14.332;2023-02-12T16:55:50;13.40;;;8.30;;
75716;SDS011;64333;50.138;14.332;2023-02-12T16:58:16;15.35;;;9.27;;
75716;SDS011;64333;50.138;14.332;2023-02-12T17:00:41;18.42;;;9.52;;
75716;SDS011;64333;50.138;14.332;2023-02-12T17:03:10;16.02;;;9.95;;
75716;SDS011;64333;50.138;14.332;2023-02-12T17:05:37;18.35;;;11.55;;
75716;SDS011;64333;50.138;14.332;2023-02-12T17:08:03;17.92;;;11.52;;
75716;SDS011;64333;50.138;14.332;2023-02-12T17:10:33;18.00;;;10.57;;
75716;SDS011;64333;50.138;14.332;2023-02-12T17:12:58;18.40;;;11.65;;
75716;SDS011;64333;50.138;14.332;2023-02-12T17:15:26;21.17;;;13.05;;
75716;SDS011;64333;50.138;14.332;2023-02-12T17:17:54;17.88;;;11.05;;
75716;SDS011;64333;50.138;14.332;2023-02-12T17:20:20;19.13;;;11.10;;
75716;SDS011;64333;50.138;14.332;2023-02-12T17:22:49;21.00;;;11.32;;
75716;SDS011;64333;50.138;14.332;2023-02-12T17:25:17;18.80;;;11.48;;
75716;SDS011;64333;50.138;14.332;2023-02-12T17:27:43;17.13;;;10.90;;
75716;SDS011;64333;50.138;14.332;2023-02-12T17:30:13;15.10;;;9.75;;
75716;SDS011;64333;50.138;14.332;2023-02-12T17:32:41;16.13;;;9.93;;
75716;SDS011;64333;50.138;14.332;2023-02-12T17:35:06;16.85;;;9.55;;
75716;SDS011;64333;50.138;14.332;2023-02-12T17:37:32;16.30;;;9.48;;